createdAt,value
2019-03-04T00:00:57.156Z,60.81
2019-03-04T00:03:26.407Z,60.43
2019-03-04T00:05:56.381Z,59.91
2019-03-04T00:08:25.737Z,60.10
2019-03-04T00:10:55.035Z,59.50
2019-03-04T00:13:24.366Z,59.42
2019-03-04T00:15:53.743Z,58.39
2019-03-04T00:18:23.203Z,58.31
2019-03-04T00:20:52.826Z,58.25
2019-03-04T00:23:22.107Z,57.76
2019-03-04T00:25:51.880Z,57.75
2019-03-04T00:28:20.703Z,57.65
2019-03-04T00:30:50.075Z,57.13
2019-03-04T00:33:19.482Z,56.81
2019-03-04T00:35:48.758Z,57.00
2019-03-04T00:38:18.111Z,57.29
2019-03-04T00:40:47.430Z,56.68
2019-03-04T00:43:16.713Z,56.90
2019-03-04T00:45:46.170Z,56.54
2019-03-04T00:48:15.487Z,56.57
2019-03-04T00:50:45.544Z,56.22
2019-03-04T00:53:14.946Z,56.20
2019-03-04T00:55:44.441Z,57.21
2019-03-04T00:58:13.818Z,56.83
2019-03-04T01:00:43.204Z,56.14
2019-03-04T01:03:12.568Z,55.97
2019-03-04T01:05:41.905Z,55.91
2019-03-04T01:08:11.188Z,56.69
2019-03-04T01:10:40.515Z,56.69
2019-03-04T01:13:09.902Z,57.34
2019-03-04T01:15:39.280Z,57.49
2019-03-04T01:18:08.556Z,57.52
2019-03-04T01:20:37.977Z,59.38
2019-03-04T01:23:07.391Z,61.16
2019-03-04T01:25:36.732Z,61.07
2019-03-04T01:28:06.102Z,61.24
2019-03-04T01:30:35.425Z,61.82
2019-03-04T01:33:04.840Z,61.32
2019-03-04T01:35:34.235Z,60.27
2019-03-04T01:38:04.288Z,60.37
2019-03-04T01:40:33.607Z,59.84
2019-03-04T01:43:03.068Z,59.37
2019-03-04T01:45:32.482Z,58.69
2019-03-04T01:48:02.770Z,58.39
2019-03-04T01:50:32.129Z,58.80
2019-03-04T01:53:01.473Z,58.46
2019-03-04T01:55:30.899Z,58.50
2019-03-04T01:58:00.353Z,58.63
2019-03-04T02:00:29.732Z,58.01
2019-03-04T02:02:59.140Z,57.60
2019-03-04T02:05:28.602Z,57.91
2019-03-04T02:07:58.011Z,57.62
2019-03-04T02:10:27.306Z,57.19
2019-03-04T02:12:56.683Z,57.08
2019-03-04T02:15:26.041Z,57.26
2019-03-04T02:17:55.469Z,57.08
2019-03-04T02:20:24.731Z,56.98
2019-03-04T02:22:54.128Z,56.87
2019-03-04T02:26:33.956Z,56.86
2019-03-04T02:29:03.240Z,57.36
2019-03-04T02:31:33.450Z,57.27
2019-03-04T02:34:02.852Z,57.09
2019-03-04T02:36:32.899Z,57.47
2019-03-04T02:39:02.208Z,57.67
2019-03-04T02:41:33.573Z,58.09
2019-03-04T02:44:02.893Z,57.92
2019-03-04T02:46:33.654Z,58.19
2019-03-04T02:49:02.972Z,58.47
2019-03-04T02:51:32.273Z,58.56
2019-03-04T02:54:02.145Z,58.24
2019-03-04T02:56:31.978Z,58.25
2019-03-04T02:59:01.405Z,57.22
2019-03-04T03:01:32.405Z,56.71
2019-03-04T03:04:01.846Z,57.12
2019-03-04T03:06:31.143Z,57.45
2019-03-04T03:09:00.510Z,57.49
2019-03-04T03:11:29.831Z,57.17
2019-03-04T03:13:59.275Z,57.25
2019-03-04T03:16:28.625Z,57.23
2019-03-04T03:18:57.998Z,57.02
2019-03-04T03:21:27.350Z,57.29
2019-03-04T03:23:59.166Z,56.91
2019-03-04T03:26:27.016Z,57.09
2019-03-04T03:28:56.523Z,57.60
2019-03-04T03:31:25.905Z,57.56
2019-03-04T03:33:56.250Z,58.03
2019-03-04T03:36:26.179Z,58.07
2019-03-04T03:38:55.534Z,58.24
2019-03-04T03:41:24.904Z,57.93
2019-03-04T03:43:54.203Z,57.85
2019-03-04T03:46:23.635Z,58.07
2019-03-04T03:48:52.926Z,58.24
2019-03-04T03:51:23.267Z,58.26
2019-03-04T03:53:52.583Z,58.47
2019-03-04T03:56:22.684Z,57.92
2019-03-04T03:58:51.990Z,58.42
2019-03-04T04:01:21.425Z,58.44
2019-03-04T04:03:50.826Z,58.65
2019-03-04T04:06:20.273Z,58.48
2019-03-04T04:08:49.597Z,58.40
2019-03-04T04:11:18.996Z,58.42
2019-03-04T04:13:48.298Z,58.23
2019-03-04T04:16:17.570Z,57.75
2019-03-04T04:18:46.905Z,57.68
2019-03-04T04:21:16.336Z,58.12
2019-03-04T04:23:46.694Z,58.09
2019-03-04T04:26:22.820Z,58.85
2019-03-04T04:29:09.226Z,59.09
2019-03-04T04:31:40.214Z,59.57
2019-03-04T04:34:09.491Z,59.58
2019-03-04T04:36:38.816Z,59.93
2019-03-04T04:39:08.948Z,59.88
2019-03-04T04:41:38.365Z,60.10
2019-03-04T04:44:07.753Z,59.67
2019-03-04T04:46:49.162Z,59.55
2019-03-04T04:49:18.652Z,59.32
2019-03-04T04:51:48.044Z,59.18
2019-03-04T04:54:17.562Z,59.16
2019-03-04T04:56:46.944Z,59.09
2019-03-04T04:59:16.366Z,58.95
2019-03-04T05:01:46.366Z,58.41
2019-03-04T05:04:15.801Z,58.38
2019-03-04T05:06:45.105Z,58.76
2019-03-04T05:09:14.464Z,57.55
2019-03-04T05:11:43.824Z,57.74
2019-03-04T05:14:14.192Z,57.34
2019-03-04T05:16:43.540Z,56.87
2019-03-04T05:19:13.101Z,56.82
2019-03-04T05:21:43.079Z,57.20
2019-03-04T05:24:12.378Z,56.96
2019-03-04T05:26:41.677Z,56.68
2019-03-04T05:29:11.046Z,57.15
2019-03-04T05:31:41.354Z,56.96
2019-03-04T05:34:10.833Z,56.30
2019-03-04T05:36:40.268Z,55.79
2019-03-04T05:39:09.694Z,55.29
2019-03-04T05:41:39.120Z,55.53
2019-03-04T05:44:08.449Z,55.16
2019-03-04T05:46:37.713Z,54.64
2019-03-04T05:49:07.100Z,54.75
2019-03-04T05:51:36.460Z,54.79
2019-03-04T05:54:09.552Z,54.51
2019-03-04T05:56:38.835Z,54.39
2019-03-04T05:59:08.174Z,54.30
2019-03-04T06:01:40.866Z,53.71
2019-03-04T06:04:12.356Z,53.69
2019-03-04T06:06:49.032Z,53.46
2019-03-04T06:09:18.353Z,53.68
2019-03-04T06:11:47.749Z,53.32
2019-03-04T06:14:17.121Z,52.74
2019-03-04T06:16:47.509Z,53.10
2019-03-04T06:19:15.759Z,53.07
2019-03-04T06:21:45.113Z,53.03
2019-03-04T06:24:14.440Z,52.79
2019-03-04T06:26:43.812Z,56.87
2019-03-04T06:29:13.068Z,53.34
2019-03-04T06:31:42.399Z,55.58
2019-03-04T06:34:11.691Z,54.91
2019-03-04T06:36:41.929Z,56.75
2019-03-04T06:39:11.288Z,56.05
2019-03-04T06:41:40.791Z,58.87
2019-03-04T06:44:10.101Z,59.70
2019-03-04T06:46:39.476Z,64.52
2019-03-04T06:49:08.897Z,70.24
2019-03-04T06:51:45.281Z,70.08
2019-03-04T06:54:49.592Z,66.81
2019-03-04T06:57:28.551Z,66.03
2019-03-04T07:01:05.322Z,66.85
2019-03-04T07:03:43.045Z,65.32
2019-03-04T07:06:12.444Z,63.69
2019-03-04T07:09:14.886Z,62.52
2019-03-04T07:11:46.085Z,61.14
2019-03-04T07:14:15.405Z,62.06
2019-03-04T07:16:45.794Z,62.18
2019-03-04T07:19:21.609Z,60.15
2019-03-04T07:21:50.972Z,60.79
2019-03-04T07:24:20.273Z,57.84
2019-03-04T07:26:49.829Z,56.66
2019-03-04T07:29:19.169Z,55.61
2019-03-04T07:31:48.374Z,55.75
2019-03-04T07:34:17.644Z,55.18
2019-03-04T07:36:46.854Z,55.63
2019-03-04T07:39:18.170Z,54.37
2019-03-04T07:41:50.118Z,55.35
2019-03-04T07:44:19.417Z,53.69
2019-03-04T07:46:48.732Z,54.04
2019-03-04T07:49:17.966Z,52.58
2019-03-04T07:51:47.360Z,52.84
2019-03-04T07:54:16.651Z,52.12
2019-03-04T07:56:46.111Z,52.23
2019-03-04T07:59:15.405Z,51.22
2019-03-04T08:01:44.792Z,50.63
2019-03-04T08:04:14.181Z,51.33
2019-03-04T08:06:43.478Z,50.33
2019-03-04T08:11:28.207Z,50.02
2019-03-04T08:14:00.614Z,49.55
2019-03-04T08:16:29.939Z,49.42
2019-03-04T08:18:59.305Z,49.43
2019-03-04T08:21:29.208Z,49.36
2019-03-04T08:23:58.659Z,48.47
2019-03-04T08:26:27.953Z,47.31
2019-03-04T08:28:58.770Z,46.95
2019-03-04T08:31:26.687Z,46.32
2019-03-04T08:33:56.684Z,46.34
2019-03-04T08:36:26.013Z,46.45
2019-03-04T08:38:55.360Z,46.76
2019-03-04T08:41:24.772Z,46.66
2019-03-04T08:43:54.240Z,46.54
2019-03-04T08:46:24.201Z,47.36
2019-03-04T08:48:53.521Z,85.34
2019-03-04T08:51:22.828Z,89.94
2019-03-04T08:53:52.176Z,92.50
2019-03-04T08:56:21.529Z,93.24
2019-03-04T08:58:50.870Z,93.04
2019-03-04T09:01:20.457Z,93.67
2019-03-04T09:03:49.848Z,93.71
2019-03-04T09:06:19.133Z,93.90
2019-03-04T09:08:48.459Z,93.50
2019-03-04T09:11:17.775Z,93.79
2019-03-04T09:13:47.146Z,93.34
2019-03-04T09:16:16.547Z,92.97
2019-03-04T09:18:45.855Z,93.48
2019-03-04T09:21:15.189Z,93.58
2019-03-04T09:23:44.541Z,92.91
2019-03-04T09:26:13.895Z,92.47
2019-03-04T09:28:43.264Z,90.98
2019-03-04T09:31:12.588Z,89.99
2019-03-04T09:33:41.925Z,88.99
2019-03-04T09:36:11.357Z,88.30
2019-03-04T09:38:40.648Z,84.87
2019-03-04T09:41:09.971Z,84.25
2019-03-04T09:43:39.320Z,83.41
2019-03-04T09:46:08.637Z,83.10
2019-03-04T09:48:37.934Z,83.20
2019-03-04T09:51:07.236Z,84.45
2019-03-04T09:53:39.717Z,82.53
2019-03-04T09:56:05.947Z,84.60
2019-03-04T09:58:35.906Z,83.55
2019-03-04T10:01:17.868Z,81.60
2019-03-04T10:04:07.727Z,78.96
2019-03-04T10:07:01.380Z,81.24
2019-03-04T10:09:53.633Z,80.55
2019-03-04T10:13:40.229Z,81.18
2019-03-04T10:16:34.792Z,78.56
2019-03-04T10:19:26.280Z,84.72
2019-03-04T10:22:13.359Z,88.18
2019-03-04T10:25:03.175Z,88.99
2019-03-04T10:27:49.535Z,87.75
2019-03-04T10:30:47.298Z,85.50
2019-03-04T10:33:54.411Z,84.00
2019-03-04T10:37:38.988Z,84.11
2019-03-04T10:40:36.596Z,82.75
2019-03-04T10:43:43.712Z,82.63
2019-03-04T10:46:28.610Z,80.77
2019-03-04T10:48:57.983Z,81.39
2019-03-04T10:51:27.325Z,79.11
2019-03-04T10:53:56.816Z,78.52
2019-03-04T10:56:26.146Z,72.96
2019-03-04T10:58:55.439Z,73.59
2019-03-04T11:01:30.425Z,73.80
2019-03-04T11:03:54.119Z,72.66
2019-03-04T11:06:23.467Z,70.30
2019-03-04T11:08:52.781Z,73.50
2019-03-04T11:11:29.465Z,73.08
2019-03-04T11:13:51.401Z,68.99
2019-03-04T11:16:20.773Z,68.08
2019-03-04T11:18:56.635Z,71.07
2019-03-04T11:21:25.972Z,68.73
2019-03-04T11:23:55.864Z,67.60
2019-03-04T11:26:25.247Z,66.97
2019-03-04T11:28:54.526Z,65.62
2019-03-04T11:31:23.817Z,65.27
2019-03-04T11:33:53.081Z,64.09
2019-03-04T11:36:22.456Z,62.91
2019-03-04T11:38:58.596Z,61.96
2019-03-04T11:41:27.863Z,62.39
2019-03-04T11:43:57.146Z,63.22
2019-03-04T11:46:26.436Z,60.03
2019-03-04T11:48:55.724Z,58.36
2019-03-04T11:51:25.056Z,60.38
2019-03-04T11:53:56.420Z,59.44
2019-03-04T11:56:25.699Z,59.33
2019-03-04T11:58:55.051Z,58.67
2019-03-04T12:01:29.412Z,55.33
2019-03-04T12:03:58.733Z,55.40
2019-03-04T12:06:28.089Z,56.19
2019-03-04T12:08:57.916Z,55.13
2019-03-04T12:11:27.349Z,55.50
2019-03-04T12:13:56.687Z,54.49
2019-03-04T12:16:26.060Z,54.39
2019-03-04T12:18:55.435Z,55.89
2019-03-04T12:21:24.811Z,56.73
2019-03-04T12:23:54.180Z,56.98
2019-03-04T12:26:24.488Z,56.65
2019-03-04T12:28:53.779Z,58.10
2019-03-04T12:31:23.139Z,55.47
2019-03-04T12:33:52.409Z,56.31
2019-03-04T12:36:21.712Z,56.70
2019-03-04T12:38:51.652Z,57.71
2019-03-04T12:41:20.976Z,56.90
2019-03-04T12:43:50.320Z,57.00
2019-03-04T12:46:19.600Z,57.29
2019-03-04T12:48:48.982Z,58.64
2019-03-04T12:51:23.112Z,60.77
2019-03-04T12:53:47.593Z,63.35
2019-03-04T12:56:17.012Z,68.73
2019-03-04T12:58:46.334Z,73.73
2019-03-04T13:01:16.226Z,78.83
2019-03-04T13:03:45.623Z,82.90
2019-03-04T13:06:14.936Z,83.11
2019-03-04T13:08:44.227Z,86.54
2019-03-04T13:11:13.694Z,94.39
2019-03-04T13:13:44.813Z,95.09
2019-03-04T13:16:14.201Z,95.00
2019-03-04T13:18:43.511Z,95.44
2019-03-04T13:21:12.850Z,95.16
2019-03-04T13:23:42.680Z,95.07
2019-03-04T13:26:12.269Z,93.12
2019-03-04T13:28:42.317Z,89.81
2019-03-04T13:31:11.700Z,86.70
2019-03-04T13:33:41.024Z,85.87
2019-03-04T13:36:11.328Z,83.87
2019-03-04T13:38:40.631Z,82.65
2019-03-04T13:41:10.145Z,83.39
2019-03-04T13:43:39.553Z,85.26
2019-03-04T13:46:08.843Z,85.87
2019-03-04T13:48:38.173Z,84.21
2019-03-04T13:51:07.608Z,82.92
2019-03-04T13:53:37.089Z,82.36
2019-03-04T13:56:06.470Z,80.42
2019-03-04T13:58:35.858Z,81.18
2019-03-04T14:01:05.352Z,81.71
2019-03-04T14:03:34.646Z,82.71
2019-03-04T14:06:04.011Z,81.72
2019-03-04T14:08:33.440Z,81.17
2019-03-04T14:11:03.907Z,82.63
2019-03-04T14:13:33.960Z,84.95
2019-03-04T14:16:03.296Z,88.77
2019-03-04T14:18:32.720Z,89.15
2019-03-04T14:21:02.109Z,86.48
2019-03-04T14:23:31.401Z,85.87
2019-03-04T14:26:00.677Z,84.76
2019-03-04T14:28:30.062Z,83.08
2019-03-04T14:30:59.551Z,81.86
2019-03-04T14:33:28.863Z,75.69
2019-03-04T14:35:58.206Z,75.77
2019-03-04T14:38:27.487Z,75.29
2019-03-04T14:40:56.836Z,74.51
2019-03-04T14:43:26.166Z,76.13
2019-03-04T14:45:55.595Z,75.30
2019-03-04T14:48:24.932Z,75.26
2019-03-04T14:50:54.768Z,77.24
2019-03-04T14:53:24.088Z,78.11
2019-03-04T14:55:53.412Z,76.31
2019-03-04T14:58:22.737Z,77.18
2019-03-04T15:00:52.288Z,76.50
2019-03-04T15:03:23.991Z,77.29
2019-03-04T15:05:51.012Z,77.59
2019-03-04T15:08:20.406Z,77.26
2019-03-04T15:10:49.771Z,76.67
2019-03-04T15:13:19.109Z,78.47
2019-03-04T15:15:48.376Z,78.14
2019-03-04T15:18:17.672Z,82.96
2019-03-04T15:20:47.090Z,89.30
2019-03-04T15:23:16.406Z,90.52
2019-03-04T15:25:46.568Z,92.40
2019-03-04T15:28:20.017Z,92.75
2019-03-04T15:30:52.880Z,92.79
2019-03-04T15:33:22.223Z,92.38
2019-03-04T15:35:51.631Z,92.45
2019-03-04T15:38:21.306Z,92.08
2019-03-04T15:40:50.791Z,91.23
2019-03-04T15:43:20.089Z,91.42
2019-03-04T15:45:50.309Z,91.46
2019-03-04T15:48:21.657Z,91.03
2019-03-04T15:50:51.056Z,90.20
2019-03-04T15:53:20.417Z,89.46
2019-03-04T15:55:50.784Z,88.39
2019-03-04T15:58:20.227Z,87.81
2019-03-04T16:00:49.688Z,88.20
2019-03-04T16:03:19.596Z,88.06
2019-03-04T16:05:48.939Z,87.29
2019-03-04T16:08:18.376Z,85.14
2019-03-04T16:10:47.737Z,83.64
2019-03-04T16:13:17.065Z,84.23
2019-03-04T16:15:46.562Z,83.71
2019-03-04T16:18:16.092Z,82.89
2019-03-04T16:20:46.056Z,82.52
2019-03-04T16:23:15.400Z,81.59
2019-03-04T16:25:45.456Z,81.19
2019-03-04T16:28:19.360Z,81.61
2019-03-04T16:30:51.232Z,80.85
2019-03-04T16:33:20.534Z,79.64
2019-03-04T16:35:49.911Z,78.86
2019-03-04T16:38:19.167Z,80.70
2019-03-04T16:40:49.038Z,79.54
2019-03-04T16:43:18.339Z,77.41
2019-03-04T16:45:47.599Z,77.77
2019-03-04T16:48:16.907Z,77.05
2019-03-04T16:50:47.457Z,78.13
2019-03-04T16:53:17.834Z,78.50
2019-03-04T16:55:47.300Z,78.94
2019-03-04T16:58:16.611Z,76.29
2019-03-04T17:00:46.092Z,76.79
2019-03-04T17:03:15.715Z,77.65
2019-03-04T17:05:45.115Z,77.41
2019-03-04T17:08:14.404Z,78.45
2019-03-04T17:10:43.727Z,77.19
2019-03-04T17:13:13.059Z,77.53
2019-03-04T17:15:42.517Z,75.34
2019-03-04T17:18:11.810Z,78.25
2019-03-04T17:20:41.140Z,77.58
2019-03-04T17:23:10.475Z,77.11
2019-03-04T17:25:39.813Z,76.72
2019-03-04T17:28:09.765Z,75.62
2019-03-04T17:30:39.263Z,77.48
2019-03-04T17:33:08.537Z,77.46
2019-03-04T17:35:37.887Z,76.24
2019-03-04T17:38:07.274Z,74.94
2019-03-04T17:40:36.656Z,73.95
2019-03-04T17:43:06.073Z,73.14
2019-03-04T17:45:35.364Z,72.83
2019-03-04T17:48:04.683Z,72.81
2019-03-04T17:50:35.727Z,72.52
2019-03-04T17:53:06.911Z,71.29
2019-03-04T17:55:36.296Z,71.64
2019-03-04T17:58:05.620Z,72.38
2019-03-04T18:00:35.063Z,72.39
2019-03-04T18:03:04.318Z,71.22
2019-03-04T18:05:33.604Z,71.04
2019-03-04T18:08:02.920Z,70.40
2019-03-04T18:10:32.230Z,69.97
2019-03-04T18:13:01.978Z,70.77
2019-03-04T18:15:31.314Z,70.24
2019-03-04T18:18:00.672Z,71.00
2019-03-04T18:20:34.534Z,71.25
2019-03-04T18:22:59.394Z,70.75
2019-03-04T18:25:35.926Z,70.49
2019-03-04T18:28:11.453Z,70.85
2019-03-04T18:31:26.862Z,70.43
2019-03-04T18:34:31.116Z,70.50
2019-03-04T18:37:11.994Z,70.91
2019-03-04T18:39:57.064Z,69.86
2019-03-04T18:44:57.146Z,70.98
2019-03-04T18:48:48.541Z,70.77
2019-03-04T18:51:17.826Z,71.76
2019-03-04T18:53:47.074Z,71.07
2019-03-04T18:56:21.965Z,70.71
2019-03-04T18:58:46.233Z,71.52
2019-03-04T19:01:15.915Z,72.16
2019-03-04T19:03:45.832Z,71.69
2019-03-04T19:06:15.582Z,71.14
2019-03-04T19:08:44.855Z,71.63
2019-03-04T19:11:14.904Z,71.35
2019-03-04T19:13:44.454Z,72.00
2019-03-04T19:16:14.137Z,71.62
2019-03-04T19:18:43.498Z,71.45
2019-03-04T19:21:13.700Z,71.67
2019-03-04T19:23:43.544Z,71.80
2019-03-04T19:26:12.941Z,71.98
2019-03-04T19:28:42.275Z,72.44
2019-03-04T19:31:11.676Z,72.92
2019-03-04T19:33:40.951Z,72.92
2019-03-04T19:36:10.261Z,72.92
2019-03-04T19:38:40.113Z,71.95
2019-03-04T19:41:09.621Z,72.32
2019-03-04T19:43:38.961Z,72.58
2019-03-04T19:46:08.295Z,71.97
2019-03-04T19:48:37.714Z,72.76
2019-03-04T19:51:07.174Z,72.89
2019-03-04T19:53:36.516Z,71.92
2019-03-04T19:56:05.945Z,72.82
2019-03-04T19:58:35.197Z,73.14
2019-03-04T20:01:05.348Z,72.24
2019-03-04T20:03:35.546Z,73.17
2019-03-04T20:06:05.938Z,72.23
2019-03-04T20:08:35.254Z,72.78
2019-03-04T20:11:04.715Z,73.61
2019-03-04T20:13:34.051Z,73.64
2019-03-04T20:16:04.468Z,72.62
2019-03-04T20:18:33.829Z,73.11
2019-03-04T20:21:03.104Z,73.71
2019-03-04T20:23:32.484Z,73.40
2019-03-04T20:26:01.828Z,73.42
2019-03-04T20:28:37.722Z,73.46
2019-03-04T20:31:07.022Z,73.07
2019-03-04T20:33:36.369Z,73.58
2019-03-04T20:36:05.808Z,73.35
2019-03-04T20:38:39.945Z,73.55
2019-03-04T20:41:09.316Z,73.04
2019-03-04T20:43:38.664Z,72.54
2019-03-04T20:46:07.993Z,73.33
2019-03-04T20:48:39.519Z,73.49
2019-03-04T20:51:08.833Z,73.42
2019-03-04T20:53:38.651Z,73.29
2019-03-04T20:56:08.029Z,73.42
2019-03-04T20:58:37.295Z,73.73
2019-03-04T21:01:06.653Z,73.28
2019-03-04T21:03:35.990Z,73.44
2019-03-04T21:06:05.300Z,73.47
2019-03-04T21:08:34.823Z,73.41
2019-03-04T21:11:04.247Z,74.16
2019-03-04T21:13:35.844Z,73.86
2019-03-04T21:16:02.865Z,73.90
2019-03-04T21:18:32.259Z,73.56
2019-03-04T21:21:01.512Z,72.78
2019-03-04T21:23:30.764Z,72.89
2019-03-04T21:26:07.396Z,72.59
2019-03-04T21:29:52.856Z,73.09
2019-03-04T21:32:38.709Z,73.33
2019-03-04T21:36:06.627Z,72.79
2019-03-04T21:38:36.116Z,72.44
2019-03-04T21:41:22.509Z,73.16
2019-03-04T21:44:02.693Z,75.04
2019-03-04T21:46:54.702Z,76.83
2019-03-04T21:49:25.472Z,77.94
2019-03-04T21:53:08.214Z,78.00
2019-03-04T21:55:47.909Z,77.42
2019-03-04T21:58:17.238Z,78.16
2019-03-04T22:00:54.205Z,78.61
2019-03-04T22:03:27.896Z,79.44
2019-03-04T22:05:57.460Z,80.06
2019-03-04T22:08:28.346Z,79.27
2019-03-04T22:10:57.764Z,80.24
2019-03-04T22:13:27.913Z,80.18
2019-03-04T22:15:57.250Z,79.16
2019-03-04T22:18:26.683Z,79.99
2019-03-04T22:20:56.019Z,79.11
2019-03-04T22:23:25.321Z,78.91
2019-03-04T22:26:02.006Z,78.82
2019-03-04T22:28:24.444Z,78.79
2019-03-04T22:30:53.726Z,78.83
2019-03-04T22:33:23.104Z,79.43
2019-03-04T22:35:52.370Z,78.26
2019-03-04T22:38:21.646Z,77.26
2019-03-04T22:40:50.934Z,76.22
2019-03-04T22:43:20.304Z,76.56
2019-03-04T22:45:49.503Z,76.20
2019-03-04T22:48:18.726Z,74.67
2019-03-04T22:50:48.089Z,74.89
2019-03-04T22:53:17.301Z,74.64
2019-03-04T22:55:46.810Z,74.30
2019-03-04T22:58:27.772Z,74.43
2019-03-04T23:02:03.373Z,73.94
2019-03-04T23:04:48.273Z,74.25
2019-03-04T23:07:23.827Z,75.10
2019-03-04T23:11:02.731Z,75.38
2019-03-04T23:13:44.622Z,75.21
2019-03-04T23:16:17.935Z,75.36
2019-03-04T23:18:47.792Z,75.68
2019-03-04T23:21:17.118Z,76.08
2019-03-04T23:23:46.533Z,75.72
2019-03-04T23:26:15.841Z,75.00
2019-03-04T23:28:45.225Z,74.80
2019-03-04T23:31:14.527Z,74.60
2019-03-04T23:33:44.356Z,74.79
2019-03-04T23:36:13.717Z,74.12
2019-03-04T23:38:43.033Z,74.36
2019-03-04T23:41:14.206Z,74.28
2019-03-04T23:43:41.992Z,74.13
2019-03-04T23:46:11.325Z,73.90
2019-03-04T23:48:41.592Z,73.20
2019-03-04T23:51:10.840Z,73.94
2019-03-04T23:53:40.209Z,73.46
2019-03-04T23:56:09.487Z,71.99
2019-03-04T23:58:38.804Z,73.12
